createdAt,value
2022-12-08T00:01:32.470Z,99091.96
2022-12-08T00:04:02.257Z,99094.38
2022-12-08T00:06:53.708Z,99097.81
2022-12-08T00:09:25.706Z,99095.27
2022-12-08T00:12:13.280Z,99093.95
2022-12-08T00:14:43.456Z,99095.16
2022-12-08T00:17:13.934Z,99100.89
2022-12-08T00:19:42.300Z,99105.39
2022-12-08T00:22:12.147Z,99103.73
2022-12-08T00:24:41.669Z,99113.27
2022-12-08T00:27:11.983Z,99107.05
2022-12-08T00:29:40.255Z,99101.30
2022-12-08T00:32:08.099Z,99109.09
2022-12-08T00:34:36.031Z,99105.95
2022-12-08T00:37:03.767Z,99111.44
2022-12-08T00:39:31.847Z,99108.52
2022-12-08T00:42:15.575Z,99115.74
2022-12-08T00:44:45.021Z,99116.27
2022-12-08T00:47:13.656Z,99117.17
2022-12-08T00:49:42.292Z,99114.58
2022-12-08T00:52:10.032Z,99120.13
2022-12-08T00:54:37.970Z,99123.14
2022-12-08T00:57:05.835Z,99125.94
2022-12-08T00:59:33.502Z,99130.23
2022-12-08T01:02:01.193Z,99128.85
2022-12-08T01:04:28.948Z,99126.95
2022-12-08T01:06:56.712Z,99130.09
2022-12-08T01:09:24.432Z,99133.64
2022-12-08T01:11:52.093Z,99132.45
2022-12-08T01:14:20.037Z,99133.56
2022-12-08T01:16:47.856Z,99128.89
2022-12-08T01:19:16.770Z,99136.90
2022-12-08T01:21:46.041Z,99142.88
2022-12-08T01:24:16.599Z,99146.26
2022-12-08T01:26:44.592Z,99147.70
2022-12-08T01:29:12.838Z,99154.48
2022-12-08T01:31:40.828Z,99151.93
2022-12-08T01:34:11.168Z,99146.67
2022-12-08T01:36:39.390Z,99155.94
2022-12-08T01:39:10.540Z,99157.41
2022-12-08T01:41:38.535Z,99157.56
2022-12-08T01:44:10.484Z,99156.92
2022-12-08T01:46:41.181Z,99164.89
2022-12-08T01:49:18.008Z,99165.91
2022-12-08T01:51:56.714Z,99165.61
2022-12-08T01:54:28.588Z,99169.55
2022-12-08T01:57:06.290Z,99172.17
2022-12-08T01:59:39.289Z,99174.71
2022-12-08T02:02:09.086Z,99173.23
2022-12-08T02:04:36.798Z,99179.80
2022-12-08T02:07:08.135Z,99186.10
2022-12-08T02:09:38.208Z,99181.77
2022-12-08T02:12:07.090Z,99179.34
2022-12-08T02:14:35.292Z,99175.20
2022-12-08T02:17:09.245Z,99175.10
2022-12-08T02:19:49.602Z,99176.76
2022-12-08T02:22:31.438Z,99176.19
2022-12-08T02:25:07.399Z,99177.44
2022-12-08T02:28:01.325Z,99178.70
2022-12-08T02:31:01.559Z,99182.46
2022-12-08T02:34:01.482Z,99187.02
2022-12-08T02:36:37.231Z,99190.02
2022-12-08T02:39:18.164Z,99195.89
2022-12-08T02:41:53.573Z,99198.39
2022-12-08T02:44:47.170Z,99189.97
2022-12-08T02:47:18.789Z,99195.58
2022-12-08T02:49:46.486Z,99194.84
2022-12-08T02:52:14.081Z,99195.79
2022-12-08T02:54:51.453Z,99201.52
2022-12-08T02:57:41.135Z,99205.98
2022-12-08T03:00:16.341Z,99208.29
2022-12-08T03:03:04.296Z,99207.14
2022-12-08T03:05:41.843Z,99209.27
2022-12-08T03:08:37.272Z,99210.91
2022-12-08T03:11:41.224Z,99212.52
2022-12-08T03:14:13.072Z,99209.81
2022-12-08T03:16:46.317Z,99215.91
2022-12-08T03:19:23.063Z,99216.76
2022-12-08T03:21:54.148Z,99215.29
2022-12-08T03:24:23.141Z,99210.52
2022-12-08T03:26:58.394Z,99213.29
2022-12-08T03:29:26.505Z,99218.80
2022-12-08T03:31:57.939Z,99220.20
2022-12-08T03:34:28.803Z,99222.70
2022-12-08T03:36:56.537Z,99228.40
2022-12-08T03:39:24.291Z,99230.65
2022-12-08T03:41:52.034Z,99232.15
2022-12-08T03:44:19.654Z,99231.59
2022-12-08T03:46:47.365Z,99235.79
2022-12-08T03:49:15.054Z,99237.03
2022-12-08T03:51:42.712Z,99239.36
2022-12-08T03:54:10.519Z,99243.65
2022-12-08T03:56:39.524Z,99238.48
2022-12-08T03:59:08.073Z,99241.55
2022-12-08T04:01:35.715Z,99240.84
2022-12-08T04:04:03.494Z,99242.94
2022-12-08T04:06:31.275Z,99243.05
2022-12-08T04:08:58.952Z,99241.86
2022-12-08T04:11:26.761Z,99243.50
2022-12-08T04:13:54.482Z,99249.63
2022-12-08T04:16:24.877Z,99250.64
2022-12-08T04:18:52.558Z,99253.15
2022-12-08T04:21:20.369Z,99252.55
2022-12-08T04:23:48.259Z,99251.37
2022-12-08T04:26:16.541Z,99254.05
2022-12-08T04:28:44.457Z,99256.64
2022-12-08T04:31:12.299Z,99256.55
2022-12-08T04:33:40.251Z,99263.98
2022-12-08T04:36:08.682Z,99254.74
2022-12-08T04:38:36.762Z,99259.42
2022-12-08T04:41:04.577Z,99263.98
2022-12-08T04:43:32.281Z,99261.20
2022-12-08T04:46:00.233Z,99256.36
2022-12-08T04:48:27.847Z,99260.69
2022-12-08T04:50:55.582Z,99263.09
2022-12-08T04:53:23.443Z,99269.47
2022-12-08T04:55:51.252Z,99273.86
2022-12-08T04:58:19.860Z,99270.39
2022-12-08T05:00:48.269Z,99277.41
2022-12-08T05:03:17.152Z,99276.92
2022-12-08T05:05:44.882Z,99276.52
2022-12-08T05:08:12.598Z,99284.31
2022-12-08T05:10:40.368Z,99272.20
2022-12-08T05:13:08.241Z,99274.52
2022-12-08T05:15:36.016Z,99275.75
2022-12-08T05:18:06.430Z,99273.65
2022-12-08T05:20:35.123Z,99278.29
2022-12-08T05:23:02.774Z,99278.45
2022-12-08T05:25:30.442Z,99284.71
2022-12-08T05:28:17.481Z,99289.13
2022-12-08T05:30:45.814Z,99291.12
2022-12-08T05:33:14.024Z,99294.36
2022-12-08T05:35:41.665Z,99291.06
2022-12-08T05:38:10.965Z,99290.64
2022-12-08T05:40:40.044Z,99290.23
2022-12-08T05:43:07.635Z,99296.41
2022-12-08T05:45:35.313Z,99296.54
2022-12-08T05:48:03.277Z,99299.80
2022-12-08T05:50:30.853Z,99302.48
2022-12-08T05:52:58.437Z,99301.73
2022-12-08T05:55:26.045Z,99307.27
2022-12-08T05:57:53.704Z,99311.23
2022-12-08T06:00:22.084Z,99311.67
2022-12-08T06:02:49.960Z,99308.38
2022-12-08T06:05:17.840Z,99312.95
2022-12-08T06:07:45.677Z,99313.78
2022-12-08T06:10:13.495Z,99318.23
2022-12-08T06:12:41.328Z,99320.64
2022-12-08T06:15:09.631Z,99324.83
2022-12-08T06:17:37.311Z,99320.20
2022-12-08T06:20:06.661Z,99323.93
2022-12-08T06:22:35.198Z,99331.98
2022-12-08T06:25:06.055Z,99329.86
2022-12-08T06:27:36.172Z,99331.84
2022-12-08T06:30:05.011Z,99337.86
2022-12-08T06:32:48.108Z,99343.41
2022-12-08T06:35:17.406Z,99350.05
2022-12-08T06:37:45.098Z,99353.47
2022-12-08T06:40:13.381Z,99350.77
2022-12-08T06:42:43.980Z,99355.25
2022-12-08T06:45:14.035Z,99359.16
2022-12-08T06:47:42.832Z,99364.83
2022-12-08T06:50:11.680Z,99362.81
2022-12-08T06:52:53.040Z,99365.59
2022-12-08T06:55:57.266Z,99369.67
2022-12-08T06:58:14.822Z,99365.17
2022-12-08T07:00:43.331Z,99367.77
2022-12-08T07:03:11.926Z,99370.40
2022-12-08T07:05:39.554Z,99366.95
2022-12-08T07:08:09.019Z,99368.64
2022-12-08T07:10:37.422Z,99370.08
2022-12-08T07:13:05.201Z,99371.72
2022-12-08T07:15:32.812Z,99376.85
2022-12-08T07:18:00.786Z,99377.83
2022-12-08T07:20:28.904Z,99381.77
2022-12-08T07:22:56.840Z,99387.06
2022-12-08T07:25:24.430Z,99389.67
2022-12-08T07:27:53.193Z,99396.03
2022-12-08T07:30:21.028Z,99395.81
2022-12-08T07:32:48.666Z,99397.84
2022-12-08T07:35:16.370Z,99405.70
2022-12-08T07:37:44.004Z,99402.23
2022-12-08T07:40:12.349Z,99404.23
2022-12-08T07:42:39.955Z,99404.70
2022-12-08T07:45:08.109Z,99409.31
2022-12-08T07:47:35.729Z,99410.22
2022-12-08T07:50:04.362Z,99411.07
2022-12-08T07:52:35.187Z,99414.11
2022-12-08T07:55:02.972Z,99414.48
2022-12-08T07:57:30.642Z,99417.80
2022-12-08T07:59:58.241Z,99422.58
2022-12-08T08:05:01.763Z,99420.98
2022-12-08T08:08:30.027Z,99411.60
2022-12-08T08:10:58.639Z,99411.75
2022-12-08T08:13:26.314Z,99413.51
2022-12-08T08:15:55.081Z,99417.89
2022-12-08T08:18:23.406Z,99421.20
2022-12-08T08:20:50.979Z,99425.95
2022-12-08T08:23:21.141Z,99429.10
2022-12-08T08:25:48.846Z,99432.64
2022-12-08T08:28:16.466Z,99434.36
2022-12-08T08:30:45.805Z,99434.60
2022-12-08T08:33:14.306Z,99430.69
2022-12-08T08:35:42.303Z,99436.68
2022-12-08T08:38:09.988Z,99435.04
2022-12-08T08:40:37.634Z,99433.78
2022-12-08T08:43:06.649Z,99436.08
2022-12-08T08:45:34.913Z,99434.23
2022-12-08T08:48:02.579Z,99435.56
2022-12-08T08:50:35.889Z,99435.57
2022-12-08T08:53:05.637Z,99434.01
2022-12-08T08:55:33.609Z,99435.75
2022-12-08T08:58:01.420Z,99435.90
2022-12-08T09:00:29.026Z,99437.98
2022-12-08T09:02:56.642Z,99436.34
2022-12-08T09:05:24.315Z,99437.52
2022-12-08T09:07:51.969Z,99438.25
2022-12-08T09:10:19.746Z,99431.71
2022-12-08T09:12:47.395Z,99434.66
2022-12-08T09:15:15.420Z,99434.32
2022-12-08T09:17:44.820Z,99432.31
2022-12-08T09:20:12.701Z,99425.34
2022-12-08T09:22:40.553Z,99424.34
2022-12-08T09:25:08.681Z,99425.52
2022-12-08T09:27:36.314Z,99422.37
2022-12-08T09:30:04.714Z,99421.79
2022-12-08T09:32:32.633Z,99423.83
2022-12-08T09:35:01.392Z,99419.02
2022-12-08T09:37:28.977Z,99417.23
2022-12-08T09:39:59.538Z,99415.55
2022-12-08T09:42:52.098Z,99414.05
2022-12-08T09:45:20.764Z,99413.59
2022-12-08T09:47:58.003Z,99414.60
2022-12-08T09:50:57.895Z,99415.80
2022-12-08T09:53:37.155Z,99416.52
2022-12-08T09:56:21.070Z,99409.27
2022-12-08T09:58:55.388Z,99406.33
2022-12-08T10:01:27.863Z,99404.33
2022-12-08T10:03:56.132Z,99402.40
2022-12-08T10:06:55.932Z,99399.48
2022-12-08T10:09:39.992Z,99395.97
2022-12-08T10:12:18.696Z,99393.05
2022-12-08T10:15:05.051Z,99392.70
2022-12-08T10:17:38.032Z,99391.63
2022-12-08T10:20:23.505Z,99381.94
2022-12-08T10:23:03.278Z,99381.39
2022-12-08T10:25:38.148Z,99382.67
2022-12-08T10:28:05.829Z,99381.16
2022-12-08T10:30:33.592Z,99380.51
2022-12-08T10:33:01.481Z,99380.32
2022-12-08T10:35:54.079Z,99375.85
2022-12-08T10:38:31.526Z,99373.13
2022-12-08T10:41:18.072Z,99372.48
2022-12-08T10:43:54.867Z,99364.75
2022-12-08T10:46:27.521Z,99360.15
2022-12-08T10:49:11.079Z,99358.56
2022-12-08T10:51:41.300Z,99359.36
2022-12-08T10:54:41.986Z,99361.52
2022-12-08T10:57:23.689Z,99360.36
2022-12-08T10:59:55.904Z,99352.96
2022-12-08T11:02:23.909Z,99345.81
2022-12-08T11:05:01.428Z,99341.11
2022-12-08T11:07:29.330Z,99336.07
2022-12-08T11:09:58.257Z,99335.88
2022-12-08T11:12:29.418Z,99330.50
2022-12-08T11:15:03.001Z,99329.50
2022-12-08T11:17:39.358Z,99332.74
2022-12-08T11:20:09.917Z,99326.48
2022-12-08T11:22:39.762Z,99324.83
2022-12-08T11:25:07.348Z,99325.30
2022-12-08T11:27:38.362Z,99322.77
2022-12-08T11:30:25.138Z,99321.28
2022-12-08T11:33:01.751Z,99315.83
2022-12-08T11:35:41.329Z,99310.84
2022-12-08T11:38:21.394Z,99306.45
2022-12-08T11:40:57.035Z,99300.50
2022-12-08T11:43:33.560Z,99299.67
2022-12-08T11:46:13.180Z,99296.65
2022-12-08T11:49:05.958Z,99293.30
2022-12-08T11:51:44.178Z,99287.79
2022-12-08T11:54:27.818Z,99284.69
2022-12-08T11:57:04.689Z,99280.48
2022-12-08T11:59:37.987Z,99279.30
2022-12-08T12:02:12.139Z,99274.91
2022-12-08T12:04:49.331Z,99274.58
2022-12-08T12:07:35.685Z,99270.51
2022-12-08T12:10:50.105Z,99262.89
2022-12-08T12:13:42.543Z,99263.08
2022-12-08T12:16:42.117Z,99260.02
2022-12-08T12:19:16.640Z,99264.02
2022-12-08T12:21:53.733Z,99260.34
2022-12-08T12:24:36.243Z,99257.16
2022-12-08T12:27:23.093Z,99250.91
2022-12-08T12:29:57.535Z,99247.94
2022-12-08T12:32:27.709Z,99254.92
2022-12-08T12:34:58.967Z,99254.95
2022-12-08T12:37:38.851Z,99255.75
2022-12-08T12:40:28.694Z,99250.30
2022-12-08T12:42:56.284Z,99247.52
2022-12-08T12:45:31.742Z,99239.85
2022-12-08T12:47:59.817Z,99245.63
2022-12-08T12:50:33.793Z,99250.21
2022-12-08T12:53:18.069Z,99253.31
2022-12-08T12:55:46.091Z,99249.48
2022-12-08T12:58:29.787Z,99243.98
2022-12-08T13:01:20.770Z,99246.65
2022-12-08T13:04:02.271Z,99243.07
2022-12-08T13:06:38.609Z,99248.52
2022-12-08T13:09:07.319Z,99249.20
2022-12-08T13:11:53.406Z,99245.02
2022-12-08T13:14:28.983Z,99245.63
2022-12-08T13:16:59.258Z,99251.59
2022-12-08T13:19:31.269Z,99251.93
2022-12-08T13:21:59.833Z,99253.09
2022-12-08T13:24:32.574Z,99251.36
2022-12-08T13:27:03.222Z,99251.02
2022-12-08T13:29:32.832Z,99249.63
2022-12-08T13:32:05.026Z,99254.57
2022-12-08T13:34:45.290Z,99250.49
2022-12-08T13:37:18.677Z,99248.27
2022-12-08T13:40:05.808Z,99242.81
2022-12-08T13:42:42.398Z,99243.25
2022-12-08T13:45:43.581Z,99243.91
2022-12-08T13:48:35.200Z,99249.38
2022-12-08T13:55:25.905Z,99248.23
2022-12-08T13:57:35.010Z,99250.36
2022-12-08T14:00:16.718Z,99251.95
2022-12-08T14:02:49.950Z,99245.69
2022-12-08T14:05:34.643Z,99245.64
2022-12-08T14:08:57.931Z,99243.91
2022-12-08T14:11:49.351Z,99243.45
2022-12-08T14:14:53.796Z,99246.56
2022-12-08T14:17:23.293Z,99241.02
2022-12-08T14:20:09.132Z,99235.13
2022-12-08T14:22:39.055Z,99235.93
2022-12-08T14:25:12.935Z,99240.96
2022-12-08T14:27:40.625Z,99238.56
2022-12-08T14:30:14.567Z,99235.20
2022-12-08T14:33:01.275Z,99238.81
2022-12-08T14:35:35.184Z,99241.68
2022-12-08T14:38:04.539Z,99244.40
2022-12-08T14:40:37.041Z,99244.27
2022-12-08T14:43:07.728Z,99245.59
2022-12-08T14:45:41.385Z,99248.89
2022-12-08T14:48:26.679Z,99251.88
2022-12-08T14:51:04.300Z,99254.13
2022-12-08T14:53:47.923Z,99257.08
2022-12-08T14:56:36.545Z,99256.47
2022-12-08T14:59:22.910Z,99257.74
2022-12-08T15:01:53.886Z,99253.67
2022-12-08T15:04:28.233Z,99249.83
2022-12-08T15:07:19.214Z,99251.14
2022-12-08T15:09:50.073Z,99253.20
2022-12-08T15:12:27.305Z,99256.47
2022-12-08T15:14:57.182Z,99264.55
2022-12-08T15:17:42.734Z,99265.89
2022-12-08T15:20:42.421Z,99265.43
2022-12-08T15:23:28.109Z,99260.63
2022-12-08T15:25:57.119Z,99259.30
2022-12-08T15:28:30.022Z,99261.56
2022-12-08T15:30:58.997Z,99260.30
2022-12-08T15:33:27.303Z,99260.17
2022-12-08T15:35:54.922Z,99260.00
2022-12-08T15:38:28.747Z,99260.49
2022-12-08T15:40:58.742Z,99258.34
2022-12-08T15:43:26.603Z,99256.05
2022-12-08T15:45:59.445Z,99257.95
2022-12-08T15:48:29.856Z,99257.81
2022-12-08T15:50:58.776Z,99256.48
2022-12-08T15:53:26.560Z,99261.03
2022-12-08T15:58:58.744Z,99260.88
2022-12-08T16:01:27.496Z,99263.06
2022-12-08T16:09:39.663Z,99257.11
2022-12-08T16:13:27.242Z,99255.85
2022-12-08T16:18:24.149Z,99255.33
2022-12-08T16:21:09.699Z,99252.04
2022-12-08T16:23:44.553Z,99255.03
2022-12-08T16:26:28.956Z,99255.71
2022-12-08T16:29:04.313Z,99257.55
2022-12-08T16:31:32.033Z,99258.86
2022-12-08T16:34:00.027Z,99257.69
2022-12-08T16:36:27.913Z,99257.60
2022-12-08T16:38:55.601Z,99254.23
2022-12-08T16:41:39.284Z,99257.36
2022-12-08T16:44:06.957Z,99254.83
2022-12-08T16:46:35.860Z,99249.01
2022-12-08T16:49:04.536Z,99254.16
2022-12-08T16:51:32.239Z,99256.79
2022-12-08T16:53:59.922Z,99253.42
2022-12-08T16:56:32.755Z,99253.73
2022-12-08T16:59:02.371Z,99257.64
2022-12-08T17:01:30.442Z,99260.40
2022-12-08T17:04:29.722Z,99260.94
2022-12-08T17:06:46.552Z,99261.30
2022-12-08T17:09:14.170Z,99259.63
2022-12-08T17:11:43.612Z,99261.23
2022-12-08T17:14:13.673Z,99262.16
2022-12-08T17:16:42.743Z,99259.48
2022-12-08T17:19:12.893Z,99256.67
2022-12-08T17:21:40.788Z,99254.63
2022-12-08T17:24:08.487Z,99255.28
2022-12-08T17:26:36.638Z,99251.11
2022-12-08T17:29:04.662Z,99253.20
2022-12-08T17:31:33.219Z,99255.92
2022-12-08T17:34:03.155Z,99256.47
2022-12-08T17:36:32.033Z,99257.85
2022-12-08T17:39:01.020Z,99260.12
2022-12-08T17:41:29.919Z,99257.20
2022-12-08T17:43:57.814Z,99256.91
2022-12-08T17:46:25.776Z,99258.57
2022-12-08T17:48:53.633Z,99254.27
2022-12-08T17:51:21.682Z,99252.96
2022-12-08T17:53:49.389Z,99256.05
2022-12-08T17:56:20.797Z,99249.45
2022-12-08T17:58:54.177Z,99247.54
2022-12-08T18:01:23.406Z,99242.58
2022-12-08T18:03:51.439Z,99244.39
2022-12-08T18:06:19.546Z,99241.42
2022-12-08T18:08:47.775Z,99236.34
2022-12-08T18:11:19.460Z,99238.55
2022-12-08T18:13:48.823Z,99240.42
2022-12-08T18:16:21.187Z,99240.41
2022-12-08T18:22:04.995Z,99236.56
2022-12-08T18:24:34.089Z,99235.91
2022-12-08T18:27:01.761Z,99239.30
2022-12-08T18:29:40.767Z,99237.27
2022-12-08T18:32:09.135Z,99239.02
2022-12-08T18:34:36.894Z,99238.48
2022-12-08T18:37:04.763Z,99234.05
2022-12-08T18:39:33.659Z,99232.75
2022-12-08T18:42:22.009Z,99225.95
2022-12-08T18:44:51.788Z,99227.98
2022-12-08T18:47:19.811Z,99228.80
2022-12-08T18:49:47.469Z,99227.04
2022-12-08T18:52:17.863Z,99225.08
2022-12-08T18:55:05.760Z,99223.06
2022-12-08T18:57:34.317Z,99225.10
2022-12-08T19:00:02.589Z,99221.82
2022-12-08T19:02:30.761Z,99220.35
2022-12-08T19:04:58.540Z,99216.90
2022-12-08T19:07:26.271Z,99215.14
2022-12-08T19:09:54.282Z,99213.24
2022-12-08T19:12:22.425Z,99213.98
2022-12-08T19:14:50.231Z,99216.04
2022-12-08T19:17:17.951Z,99211.18
2022-12-08T19:19:45.602Z,99212.70
2022-12-08T19:22:13.935Z,99213.05
2022-12-08T19:24:41.786Z,99206.05
2022-12-08T19:27:09.667Z,99205.66
2022-12-08T19:29:37.458Z,99197.86
2022-12-08T19:32:05.388Z,99204.79
2022-12-08T19:34:33.161Z,99205.55
2022-12-08T19:37:00.768Z,99209.83
2022-12-08T19:39:44.327Z,99208.65
2022-12-08T19:42:31.370Z,99207.43
2022-12-08T19:45:04.015Z,99211.80
2022-12-08T19:47:31.718Z,99202.94
2022-12-08T19:50:14.445Z,99205.52
2022-12-08T19:52:42.837Z,99200.27
2022-12-08T19:55:10.663Z,99201.79
2022-12-08T19:57:38.717Z,99201.94
2022-12-08T20:00:10.022Z,99202.41
2022-12-08T20:02:37.981Z,99203.30
2022-12-08T20:05:06.360Z,99203.55
2022-12-08T20:07:34.470Z,99206.16
2022-12-08T20:10:09.913Z,99199.56
2022-12-08T20:12:37.606Z,99198.47
2022-12-08T20:15:06.372Z,99197.04
2022-12-08T20:17:34.048Z,99200.17
2022-12-08T20:20:06.799Z,99203.09
2022-12-08T20:22:35.247Z,99203.58
2022-12-08T20:25:03.098Z,99208.45
2022-12-08T20:27:30.749Z,99206.65
2022-12-08T20:29:58.521Z,99210.78
2022-12-08T20:32:26.209Z,99206.76
2022-12-08T20:34:53.894Z,99211.45
2022-12-08T20:37:21.945Z,99213.05
2022-12-08T20:39:49.612Z,99214.77
2022-12-08T20:42:19.076Z,99216.48
2022-12-08T20:44:46.976Z,99218.52
2022-12-08T20:47:16.044Z,99220.08
2022-12-08T20:49:43.767Z,99216.97
2022-12-08T20:52:11.589Z,99221.05
2022-12-08T20:54:39.514Z,99220.96
2022-12-08T20:57:07.258Z,99220.09
2022-12-08T20:59:35.359Z,99224.59
2022-12-08T21:02:03.227Z,99225.41
2022-12-08T21:04:31.576Z,99224.81
2022-12-08T21:07:00.522Z,99221.63
2022-12-08T21:09:28.557Z,99230.39
2022-12-08T21:11:56.386Z,99232.80
2022-12-08T21:14:24.128Z,99230.23
2022-12-08T21:16:54.412Z,99231.38
2022-12-08T21:19:22.453Z,99231.15
2022-12-08T21:21:50.939Z,99227.52
2022-12-08T21:24:19.012Z,99231.96
2022-12-08T21:26:46.825Z,99231.35
2022-12-08T21:29:14.601Z,99232.54
2022-12-08T21:31:42.435Z,99237.35
2022-12-08T21:34:11.168Z,99240.14
2022-12-08T21:36:39.126Z,99243.50
2022-12-08T21:39:12.426Z,99243.92
2022-12-08T21:41:56.313Z,99239.90
2022-12-08T21:44:24.398Z,99241.36
2022-12-08T21:46:52.585Z,99240.46
2022-12-08T21:49:20.596Z,99240.10
2022-12-08T21:51:48.468Z,99239.65
2022-12-08T21:54:18.956Z,99242.94
2022-12-08T21:56:48.328Z,99244.33
2022-12-08T21:59:17.798Z,99247.13
2022-12-08T22:01:45.799Z,99246.64
2022-12-08T22:04:17.533Z,99242.41
2022-12-08T22:06:45.606Z,99246.20
2022-12-08T22:09:15.300Z,99245.45
2022-12-08T22:11:44.074Z,99244.38
2022-12-08T22:14:14.798Z,99244.58
2022-12-08T22:16:44.104Z,99241.41
2022-12-08T22:19:12.596Z,99244.73
2022-12-08T22:21:40.754Z,99246.21
2022-12-08T22:24:09.044Z,99245.69
2022-12-08T22:26:36.785Z,99251.33
2022-12-08T22:29:04.580Z,99247.96
2022-12-08T22:31:32.854Z,99251.99
2022-12-08T22:34:00.749Z,99257.55
2022-12-08T22:36:28.913Z,99263.29
2022-12-08T22:38:56.635Z,99266.33
2022-12-08T22:41:25.440Z,99265.84
2022-12-08T22:43:53.435Z,99267.54
2022-12-08T22:46:26.548Z,99268.41
2022-12-08T22:48:54.784Z,99266.56
2022-12-08T22:51:22.610Z,99268.59
2022-12-08T22:53:50.871Z,99272.43
2022-12-08T22:56:19.315Z,99270.69
2022-12-08T22:58:47.165Z,99279.05
2022-12-08T23:01:27.259Z,99277.98
2022-12-08T23:03:56.188Z,99272.30
2022-12-08T23:06:25.899Z,99271.22
2022-12-08T23:08:54.855Z,99274.11
2022-12-08T23:11:27.920Z,99272.27
2022-12-08T23:13:57.290Z,99269.14
2022-12-08T23:16:25.000Z,99263.95
2022-12-08T23:18:52.832Z,99270.11
2022-12-08T23:21:23.432Z,99273.10
2022-12-08T23:23:54.187Z,99270.73
2022-12-08T23:26:25.341Z,99268.94
2022-12-08T23:29:19.665Z,99267.36
2022-12-08T23:31:47.504Z,99262.46
2022-12-08T23:34:15.413Z,99265.56
2022-12-08T23:36:43.302Z,99264.18
2022-12-08T23:39:11.807Z,99265.96
2022-12-08T23:41:39.412Z,99269.36
2022-12-08T23:44:09.096Z,99270.55
2022-12-08T23:46:36.983Z,99268.13
2022-12-08T23:49:04.852Z,99269.77
2022-12-08T23:51:32.447Z,99267.50
2022-12-08T23:54:00.252Z,99266.52
2022-12-08T23:56:30.510Z,99268.02
2022-12-08T23:59:01.190Z,99273.89
